sensor_id;sensor_type;location;lat;lon;timestamp;temperature;humidity
7502;DHT22;3792;47.740;7.606;2022-12-18T00:01:14;-5.40;99.90
7502;DHT22;3792;47.740;7.606;2022-12-18T00:03:41;-5.30;99.90
7502;DHT22;3792;47.740;7.606;2022-12-18T00:06:09;-5.40;99.90
7502;DHT22;3792;47.740;7.606;2022-12-18T00:08:37;-5.30;99.90
7502;DHT22;3792;47.740;7.606;2022-12-18T00:11:04;-5.30;99.90
7502;DHT22;3792;47.740;7.606;2022-12-18T00:13:32;-5.20;99.90
7502;DHT22;3792;47.740;7.606;2022-12-18T00:16:03;-5.20;99.90
7502;DHT22;3792;47.740;7.606;2022-12-18T00:18:32;-5.10;99.90
7502;DHT22;3792;47.740;7.606;2022-12-18T00:21:00;-5.10;99.90
7502;DHT22;3792;47.740;7.606;2022-12-18T00:23:28;-5.00;99.90
7502;DHT22;3792;47.740;7.606;2022-12-18T00:25:59;-5.10;99.90
7502;DHT22;3792;47.740;7.606;2022-12-18T00:28:26;-5.10;99.90
7502;DHT22;3792;47.740;7.606;2022-12-18T00:31:01;-5.30;99.90
7502;DHT22;3792;47.740;7.606;2022-12-18T00:33:29;-5.30;99.90
7502;DHT22;3792;47.740;7.606;2022-12-18T00:36:00;-5.40;99.90
7502;DHT22;3792;47.740;7.606;2022-12-18T00:38:27;-5.30;99.90
7502;DHT22;3792;47.740;7.606;2022-12-18T00:40:55;-5.40;99.90
7502;DHT22;3792;47.740;7.606;2022-12-18T00:43:22;-5.40;99.90
7502;DHT22;3792;47.740;7.606;2022-12-18T00:45:48;-5.40;99.90
7502;DHT22;3792;47.740;7.606;2022-12-18T00:48:16;-5.40;99.90
7502;DHT22;3792;47.740;7.606;2022-12-18T00:50:43;-5.50;99.90
7502;DHT22;3792;47.740;7.606;2022-12-18T00:53:10;-5.60;99.90
7502;DHT22;3792;47.740;7.606;2022-12-18T00:55:38;-5.60;99.90
7502;DHT22;3792;47.740;7.606;2022-12-18T00:58:05;-5.70;99.90
7502;DHT22;3792;47.740;7.606;2022-12-18T01:00:33;-5.80;99.90
7502;DHT22;3792;47.740;7.606;2022-12-18T01:03:00;-5.80;99.90
7502;DHT22;3792;47.740;7.606;2022-12-18T01:05:28;-5.70;99.90
7502;DHT22;3792;47.740;7.606;2022-12-18T01:07:55;-5.50;99.90
7502;DHT22;3792;47.740;7.606;2022-12-18T01:10:23;-5.60;99.90
7502;DHT22;3792;47.740;7.606;2022-12-18T01:12:51;-5.50;99.90
7502;DHT22;3792;47.740;7.606;2022-12-18T01:15:19;-5.40;99.90
7502;DHT22;3792;47.740;7.606;2022-12-18T01:17:47;-5.40;99.90
7502;DHT22;3792;47.740;7.606;2022-12-18T01:20:14;-5.30;99.90
7502;DHT22;3792;47.740;7.606;2022-12-18T01:22:42;-5.40;99.90
7502;DHT22;3792;47.740;7.606;2022-12-18T01:25:09;-5.40;99.90
7502;DHT22;3792;47.740;7.606;2022-12-18T01:27:36;-5.30;99.90
7502;DHT22;3792;47.740;7.606;2022-12-18T01:30:05;-5.40;99.90
7502;DHT22;3792;47.740;7.606;2022-12-18T01:32:32;-5.40;99.90
7502;DHT22;3792;47.740;7.606;2022-12-18T01:34:59;-5.60;99.90
7502;DHT22;3792;47.740;7.606;2022-12-18T01:37:26;-5.60;99.90
7502;DHT22;3792;47.740;7.606;2022-12-18T01:39:55;-5.50;99.90
7502;DHT22;3792;47.740;7.606;2022-12-18T01:42:22;-5.50;99.90
7502;DHT22;3792;47.740;7.606;2022-12-18T01:44:55;-5.50;99.90
7502;DHT22;3792;47.740;7.606;2022-12-18T01:47:26;-5.50;99.90
7502;DHT22;3792;47.740;7.606;2022-12-18T01:49:55;-5.40;99.90
7502;DHT22;3792;47.740;7.606;2022-12-18T01:52:25;-5.40;99.90
7502;DHT22;3792;47.740;7.606;2022-12-18T01:54:54;-5.40;99.90
7502;DHT22;3792;47.740;7.606;2022-12-18T01:57:23;-5.30;99.90
7502;DHT22;3792;47.740;7.606;2022-12-18T01:59:52;-5.30;99.90
7502;DHT22;3792;47.740;7.606;2022-12-18T02:02:21;-5.40;99.90
7502;DHT22;3792;47.740;7.606;2022-12-18T02:04:48;-5.40;99.90
7502;DHT22;3792;47.740;7.606;2022-12-18T02:07:22;-5.50;99.90
7502;DHT22;3792;47.740;7.606;2022-12-18T02:09:58;-5.70;99.90
7502;DHT22;3792;47.740;7.606;2022-12-18T02:12:32;-5.70;99.90
7502;DHT22;3792;47.740;7.606;2022-12-18T02:15:06;-5.70;99.90
7502;DHT22;3792;47.740;7.606;2022-12-18T02:17:39;-5.80;99.90
7502;DHT22;3792;47.740;7.606;2022-12-18T02:20:13;-5.70;99.90
7502;DHT22;3792;47.740;7.606;2022-12-18T02:22:49;-5.70;99.90
7502;DHT22;3792;47.740;7.606;2022-12-18T02:25:40;-5.70;99.90
7502;DHT22;3792;47.740;7.606;2022-12-18T02:28:13;-5.80;99.90
7502;DHT22;3792;47.740;7.606;2022-12-18T02:30:44;-5.70;99.90
7502;DHT22;3792;47.740;7.606;2022-12-18T02:33:13;-5.60;99.90
7502;DHT22;3792;47.740;7.606;2022-12-18T02:35:42;-5.70;99.90
7502;DHT22;3792;47.740;7.606;2022-12-18T02:38:12;-5.80;99.90
7502;DHT22;3792;47.740;7.606;2022-12-18T02:40:40;-5.90;99.90
7502;DHT22;3792;47.740;7.606;2022-12-18T02:43:11;-5.80;99.90
7502;DHT22;3792;47.740;7.606;2022-12-18T02:45:47;-5.80;99.90
7502;DHT22;3792;47.740;7.606;2022-12-18T02:48:14;-5.90;99.90
7502;DHT22;3792;47.740;7.606;2022-12-18T02:50:47;-5.90;99.90
7502;DHT22;3792;47.740;7.606;2022-12-18T02:53:23;-5.90;99.90
7502;DHT22;3792;47.740;7.606;2022-12-18T02:55:59;-6.00;99.90
7502;DHT22;3792;47.740;7.606;2022-12-18T02:58:33;-6.00;99.90
7502;DHT22;3792;47.740;7.606;2022-12-18T03:01:10;-6.00;99.90
7502;DHT22;3792;47.740;7.606;2022-12-18T03:03:41;-5.90;99.90
7502;DHT22;3792;47.740;7.606;2022-12-18T03:06:14;-5.90;99.90
7502;DHT22;3792;47.740;7.606;2022-12-18T03:08:47;-6.00;99.90
7502;DHT22;3792;47.740;7.606;2022-12-18T03:11:16;-6.00;99.90
7502;DHT22;3792;47.740;7.606;2022-12-18T03:14:07;-5.90;99.90
7502;DHT22;3792;47.740;7.606;2022-12-18T03:16:35;-6.10;99.90
7502;DHT22;3792;47.740;7.606;2022-12-18T03:19:07;-6.10;99.90
7502;DHT22;3792;47.740;7.606;2022-12-18T03:21:39;-6.30;99.90
7502;DHT22;3792;47.740;7.606;2022-12-18T03:24:08;-6.40;99.90
7502;DHT22;3792;47.740;7.606;2022-12-18T03:26:38;-6.50;99.90
7502;DHT22;3792;47.740;7.606;2022-12-18T03:29:12;-6.60;99.90
7502;DHT22;3792;47.740;7.606;2022-12-18T03:31:41;-6.60;99.90
7502;DHT22;3792;47.740;7.606;2022-12-18T03:34:12;-6.60;99.90
7502;DHT22;3792;47.740;7.606;2022-12-18T03:36:41;-6.60;99.90
7502;DHT22;3792;47.740;7.606;2022-12-18T03:39:08;-6.70;99.90
7502;DHT22;3792;47.740;7.606;2022-12-18T03:41:43;-6.60;99.90
7502;DHT22;3792;47.740;7.606;2022-12-18T03:44:14;-6.60;99.90
7502;DHT22;3792;47.740;7.606;2022-12-18T03:46:49;-6.70;99.90
7502;DHT22;3792;47.740;7.606;2022-12-18T03:49:25;-6.70;99.90
7502;DHT22;3792;47.740;7.606;2022-12-18T03:51:59;-6.80;99.90
7502;DHT22;3792;47.740;7.606;2022-12-18T03:54:29;-6.80;99.90
7502;DHT22;3792;47.740;7.606;2022-12-18T03:57:01;-6.90;99.90
7502;DHT22;3792;47.740;7.606;2022-12-18T03:59:33;-6.80;99.90
7502;DHT22;3792;47.740;7.606;2022-12-18T04:02:01;-6.60;99.90
7502;DHT22;3792;47.740;7.606;2022-12-18T04:04:31;-6.50;99.90
7502;DHT22;3792;47.740;7.606;2022-12-18T04:06:59;-6.50;99.90
7502;DHT22;3792;47.740;7.606;2022-12-18T04:09:27;-6.50;99.90
7502;DHT22;3792;47.740;7.606;2022-12-18T04:11:55;-6.60;99.90
7502;DHT22;3792;47.740;7.606;2022-12-18T04:14:22;-6.60;99.90
7502;DHT22;3792;47.740;7.606;2022-12-18T04:16:50;-6.60;99.90
7502;DHT22;3792;47.740;7.606;2022-12-18T04:19:18;-6.60;99.90
7502;DHT22;3792;47.740;7.606;2022-12-18T04:21:45;-6.60;99.90
7502;DHT22;3792;47.740;7.606;2022-12-18T04:24:12;-6.80;99.90
7502;DHT22;3792;47.740;7.606;2022-12-18T04:26:39;-6.80;99.90
7502;DHT22;3792;47.740;7.606;2022-12-18T04:29:06;-6.70;99.90
7502;DHT22;3792;47.740;7.606;2022-12-18T04:31:33;-6.70;99.90
7502;DHT22;3792;47.740;7.606;2022-12-18T04:34:01;-6.80;99.90
7502;DHT22;3792;47.740;7.606;2022-12-18T04:36:29;-6.80;99.90
7502;DHT22;3792;47.740;7.606;2022-12-18T04:38:56;-6.80;99.90
7502;DHT22;3792;47.740;7.606;2022-12-18T04:41:23;-6.90;99.90
7502;DHT22;3792;47.740;7.606;2022-12-18T04:43:50;-7.00;99.90
7502;DHT22;3792;47.740;7.606;2022-12-18T04:46:17;-7.00;99.90
7502;DHT22;3792;47.740;7.606;2022-12-18T04:48:45;-7.00;99.90
7502;DHT22;3792;47.740;7.606;2022-12-18T04:51:14;-7.00;99.90
7502;DHT22;3792;47.740;7.606;2022-12-18T04:53:41;-7.10;99.90
7502;DHT22;3792;47.740;7.606;2022-12-18T04:56:10;-7.10;99.90
7502;DHT22;3792;47.740;7.606;2022-12-18T04:58:38;-7.00;99.90
7502;DHT22;3792;47.740;7.606;2022-12-18T05:01:07;-7.00;99.90
7502;DHT22;3792;47.740;7.606;2022-12-18T05:03:34;-7.00;99.90
7502;DHT22;3792;47.740;7.606;2022-12-18T05:06:02;-7.10;99.90
7502;DHT22;3792;47.740;7.606;2022-12-18T05:08:31;-7.10;99.90
7502;DHT22;3792;47.740;7.606;2022-12-18T05:10:59;-7.20;99.90
7502;DHT22;3792;47.740;7.606;2022-12-18T05:13:26;-7.20;99.90
7502;DHT22;3792;47.740;7.606;2022-12-18T05:15:54;-7.30;99.90
7502;DHT22;3792;47.740;7.606;2022-12-18T05:18:21;-7.40;99.90
7502;DHT22;3792;47.740;7.606;2022-12-18T05:20:49;-7.40;99.90
7502;DHT22;3792;47.740;7.606;2022-12-18T05:23:16;-7.60;99.90
7502;DHT22;3792;47.740;7.606;2022-12-18T05:25:50;-7.50;99.90
7502;DHT22;3792;47.740;7.606;2022-12-18T05:28:17;-7.50;99.90
7502;DHT22;3792;47.740;7.606;2022-12-18T05:30:48;-7.40;99.90
7502;DHT22;3792;47.740;7.606;2022-12-18T05:33:15;-7.30;99.90
7502;DHT22;3792;47.740;7.606;2022-12-18T05:35:42;-7.30;99.90
7502;DHT22;3792;47.740;7.606;2022-12-18T05:38:09;-7.30;99.90
7502;DHT22;3792;47.740;7.606;2022-12-18T05:40:37;-7.20;99.90
7502;DHT22;3792;47.740;7.606;2022-12-18T05:43:05;-7.30;99.90
7502;DHT22;3792;47.740;7.606;2022-12-18T05:45:32;-7.30;99.90
7502;DHT22;3792;47.740;7.606;2022-12-18T05:48:00;-7.20;99.90
7502;DHT22;3792;47.740;7.606;2022-12-18T05:50:27;-7.40;99.90
7502;DHT22;3792;47.740;7.606;2022-12-18T05:52:54;-7.40;99.90
7502;DHT22;3792;47.740;7.606;2022-12-18T05:55:21;-7.30;99.90
7502;DHT22;3792;47.740;7.606;2022-12-18T05:57:48;-7.30;99.90
7502;DHT22;3792;47.740;7.606;2022-12-18T06:00:17;-7.30;99.90
7502;DHT22;3792;47.740;7.606;2022-12-18T06:02:46;-7.30;99.90
7502;DHT22;3792;47.740;7.606;2022-12-18T06:05:14;-7.30;99.90
7502;DHT22;3792;47.740;7.606;2022-12-18T06:07:41;-7.40;99.90
7502;DHT22;3792;47.740;7.606;2022-12-18T06:10:08;-7.40;99.90
7502;DHT22;3792;47.740;7.606;2022-12-18T06:12:35;-7.40;99.90
7502;DHT22;3792;47.740;7.606;2022-12-18T06:15:03;-7.40;99.90
7502;DHT22;3792;47.740;7.606;2022-12-18T06:17:32;-7.40;99.90
7502;DHT22;3792;47.740;7.606;2022-12-18T06:19:59;-7.40;99.90
7502;DHT22;3792;47.740;7.606;2022-12-18T06:22:27;-7.40;99.90
7502;DHT22;3792;47.740;7.606;2022-12-18T06:24:54;-7.30;99.90
7502;DHT22;3792;47.740;7.606;2022-12-18T06:27:21;-7.30;99.90
7502;DHT22;3792;47.740;7.606;2022-12-18T06:29:48;-7.30;99.90
7502;DHT22;3792;47.740;7.606;2022-12-18T06:32:15;-7.30;99.90
7502;DHT22;3792;47.740;7.606;2022-12-18T06:34:44;-7.30;99.90
7502;DHT22;3792;47.740;7.606;2022-12-18T06:37:11;-7.30;99.90
7502;DHT22;3792;47.740;7.606;2022-12-18T06:39:38;-7.30;99.90
7502;DHT22;3792;47.740;7.606;2022-12-18T06:42:05;-7.30;99.90
7502;DHT22;3792;47.740;7.606;2022-12-18T06:44:33;-7.30;99.90
7502;DHT22;3792;47.740;7.606;2022-12-18T06:47:00;-7.30;99.90
7502;DHT22;3792;47.740;7.606;2022-12-18T06:49:27;-7.40;99.90
7502;DHT22;3792;47.740;7.606;2022-12-18T06:51:56;-7.50;99.90
7502;DHT22;3792;47.740;7.606;2022-12-18T06:54:23;-7.50;99.90
7502;DHT22;3792;47.740;7.606;2022-12-18T06:56:51;-7.50;99.90
7502;DHT22;3792;47.740;7.606;2022-12-18T06:59:19;-7.50;99.90
7502;DHT22;3792;47.740;7.606;2022-12-18T07:01:46;-7.40;99.90
7502;DHT22;3792;47.740;7.606;2022-12-18T07:04:14;-7.40;99.90
7502;DHT22;3792;47.740;7.606;2022-12-18T07:06:41;-7.50;99.90
7502;DHT22;3792;47.740;7.606;2022-12-18T07:09:11;-7.50;99.90
7502;DHT22;3792;47.740;7.606;2022-12-18T07:11:38;-7.50;99.90
7502;DHT22;3792;47.740;7.606;2022-12-18T07:14:05;-7.50;99.90
7502;DHT22;3792;47.740;7.606;2022-12-18T07:16:32;-7.50;99.90
7502;DHT22;3792;47.740;7.606;2022-12-18T07:18:59;-7.60;99.90
7502;DHT22;3792;47.740;7.606;2022-12-18T07:21:26;-7.50;99.90
7502;DHT22;3792;47.740;7.606;2022-12-18T07:23:53;-7.50;99.90
7502;DHT22;3792;47.740;7.606;2022-12-18T07:26:22;-7.40;99.90
7502;DHT22;3792;47.740;7.606;2022-12-18T07:28:49;-7.40;99.90
7502;DHT22;3792;47.740;7.606;2022-12-18T07:31:19;-7.20;99.90
7502;DHT22;3792;47.740;7.606;2022-12-18T07:33:47;-7.30;99.90
7502;DHT22;3792;47.740;7.606;2022-12-18T07:36:14;-7.30;99.90
7502;DHT22;3792;47.740;7.606;2022-12-18T07:38:42;-7.30;99.90
7502;DHT22;3792;47.740;7.606;2022-12-18T07:41:11;-7.30;99.90
7502;DHT22;3792;47.740;7.606;2022-12-18T07:43:46;-7.20;99.90
7502;DHT22;3792;47.740;7.606;2022-12-18T07:46:15;-7.00;99.90
7502;DHT22;3792;47.740;7.606;2022-12-18T07:48:43;-6.90;99.90
7502;DHT22;3792;47.740;7.606;2022-12-18T07:51:10;-6.60;99.90
7502;DHT22;3792;47.740;7.606;2022-12-18T07:53:38;-6.40;99.90
7502;DHT22;3792;47.740;7.606;2022-12-18T07:56:07;-6.40;99.90
7502;DHT22;3792;47.740;7.606;2022-12-18T07:58:35;-6.30;99.90
7502;DHT22;3792;47.740;7.606;2022-12-18T08:01:05;-6.10;99.90
7502;DHT22;3792;47.740;7.606;2022-12-18T08:03:33;-6.10;99.90
7502;DHT22;3792;47.740;7.606;2022-12-18T08:06:01;-6.20;99.90
7502;DHT22;3792;47.740;7.606;2022-12-18T08:08:28;-6.20;99.90
7502;DHT22;3792;47.740;7.606;2022-12-18T08:10:56;-6.20;99.90
7502;DHT22;3792;47.740;7.606;2022-12-18T08:13:24;-6.10;99.90
7502;DHT22;3792;47.740;7.606;2022-12-18T08:15:56;-6.10;99.90
7502;DHT22;3792;47.740;7.606;2022-12-18T08:18:25;-6.00;99.90
7502;DHT22;3792;47.740;7.606;2022-12-18T08:20:52;-6.10;99.90
7502;DHT22;3792;47.740;7.606;2022-12-18T08:23:19;-6.10;99.90
7502;DHT22;3792;47.740;7.606;2022-12-18T08:25:46;-6.10;99.90
7502;DHT22;3792;47.740;7.606;2022-12-18T08:28:17;-5.90;99.90
7502;DHT22;3792;47.740;7.606;2022-12-18T08:30:44;-5.80;99.90
7502;DHT22;3792;47.740;7.606;2022-12-18T08:33:11;-5.80;99.90
7502;DHT22;3792;47.740;7.606;2022-12-18T08:35:39;-5.80;99.90
7502;DHT22;3792;47.740;7.606;2022-12-18T08:38:06;-5.80;99.90
7502;DHT22;3792;47.740;7.606;2022-12-18T08:40:34;-6.00;99.90
7502;DHT22;3792;47.740;7.606;2022-12-18T08:43:01;-5.80;99.90
7502;DHT22;3792;47.740;7.606;2022-12-18T08:45:45;-5.60;99.90
7502;DHT22;3792;47.740;7.606;2022-12-18T08:48:12;-5.60;99.90
7502;DHT22;3792;47.740;7.606;2022-12-18T08:50:41;-5.70;99.90
7502;DHT22;3792;47.740;7.606;2022-12-18T08:53:08;-5.50;99.90
7502;DHT22;3792;47.740;7.606;2022-12-18T08:55:35;-5.30;99.90
7502;DHT22;3792;47.740;7.606;2022-12-18T08:58:02;-5.30;99.90
7502;DHT22;3792;47.740;7.606;2022-12-18T09:00:30;-5.20;99.90
7502;DHT22;3792;47.740;7.606;2022-12-18T09:02:57;-5.10;99.90
7502;DHT22;3792;47.740;7.606;2022-12-18T09:05:24;-4.90;99.90
7502;DHT22;3792;47.740;7.606;2022-12-18T09:07:52;-4.80;99.90
7502;DHT22;3792;47.740;7.606;2022-12-18T09:10:19;-4.90;99.90
7502;DHT22;3792;47.740;7.606;2022-12-18T09:12:46;-4.70;99.90
7502;DHT22;3792;47.740;7.606;2022-12-18T09:15:14;-4.40;99.90
7502;DHT22;3792;47.740;7.606;2022-12-18T09:17:41;-4.00;99.90
7502;DHT22;3792;47.740;7.606;2022-12-18T09:20:08;-3.50;99.90
7502;DHT22;3792;47.740;7.606;2022-12-18T09:22:36;-3.20;99.90
7502;DHT22;3792;47.740;7.606;2022-12-18T09:25:05;-2.50;99.90
7502;DHT22;3792;47.740;7.606;2022-12-18T09:27:33;-1.80;99.90
7502;DHT22;3792;47.740;7.606;2022-12-18T09:30:01;-1.40;99.90
7502;DHT22;3792;47.740;7.606;2022-12-18T09:32:28;-0.80;99.90
7502;DHT22;3792;47.740;7.606;2022-12-18T09:34:55;-0.30;99.90
7502;DHT22;3792;47.740;7.606;2022-12-18T09:37:22;0.10;99.90
7502;DHT22;3792;47.740;7.606;2022-12-18T09:39:49;0.40;99.90
7502;DHT22;3792;47.740;7.606;2022-12-18T09:42:21;0.70;99.90
7502;DHT22;3792;47.740;7.606;2022-12-18T09:44:50;1.10;99.90
7502;DHT22;3792;47.740;7.606;2022-12-18T09:47:22;1.50;99.90
7502;DHT22;3792;47.740;7.606;2022-12-18T09:49:53;1.40;99.90
7502;DHT22;3792;47.740;7.606;2022-12-18T09:52:25;1.80;99.90
7502;DHT22;3792;47.740;7.606;2022-12-18T09:54:56;1.80;99.90
7502;DHT22;3792;47.740;7.606;2022-12-18T09:57:28;2.10;99.90
7502;DHT22;3792;47.740;7.606;2022-12-18T09:59:58;2.10;99.90
7502;DHT22;3792;47.740;7.606;2022-12-18T10:02:30;2.10;99.90
7502;DHT22;3792;47.740;7.606;2022-12-18T10:05:04;2.10;99.90
7502;DHT22;3792;47.740;7.606;2022-12-18T10:07:41;2.30;99.90
7502;DHT22;3792;47.740;7.606;2022-12-18T10:10:18;2.30;99.60
7502;DHT22;3792;47.740;7.606;2022-12-18T10:12:55;2.40;99.90
7502;DHT22;3792;47.740;7.606;2022-12-18T10:15:29;1.90;99.60
7502;DHT22;3792;47.740;7.606;2022-12-18T10:18:04;1.70;99.90
7502;DHT22;3792;47.740;7.606;2022-12-18T10:20:40;1.80;99.90
7502;DHT22;3792;47.740;7.606;2022-12-18T10:23:14;1.70;99.90
7502;DHT22;3792;47.740;7.606;2022-12-18T10:25:51;1.30;99.90
7502;DHT22;3792;47.740;7.606;2022-12-18T10:28:23;0.90;99.90
7502;DHT22;3792;47.740;7.606;2022-12-18T10:30:52;0.90;99.90
7502;DHT22;3792;47.740;7.606;2022-12-18T10:33:22;1.20;99.90
7502;DHT22;3792;47.740;7.606;2022-12-18T10:35:51;1.50;99.90
7502;DHT22;3792;47.740;7.606;2022-12-18T10:38:23;1.90;99.90
7502;DHT22;3792;47.740;7.606;2022-12-18T10:40:53;2.50;99.90
7502;DHT22;3792;47.740;7.606;2022-12-18T10:43:24;3.00;99.90
7502;DHT22;3792;47.740;7.606;2022-12-18T10:46:11;3.30;99.90
7502;DHT22;3792;47.740;7.606;2022-12-18T10:48:47;3.90;99.90
7502;DHT22;3792;47.740;7.606;2022-12-18T10:51:20;3.30;98.30
7502;DHT22;3792;47.740;7.606;2022-12-18T10:53:54;3.10;99.40
7502;DHT22;3792;47.740;7.606;2022-12-18T10:56:24;2.90;99.80
7502;DHT22;3792;47.740;7.606;2022-12-18T10:58:58;2.70;99.90
7502;DHT22;3792;47.740;7.606;2022-12-18T11:01:26;2.20;99.90
7502;DHT22;3792;47.740;7.606;2022-12-18T11:04:02;1.80;99.90
7502;DHT22;3792;47.740;7.606;2022-12-18T11:06:34;1.20;99.90
7502;DHT22;3792;47.740;7.606;2022-12-18T11:09:20;0.80;99.90
7502;DHT22;3792;47.740;7.606;2022-12-18T11:11:49;0.80;99.90
7502;DHT22;3792;47.740;7.606;2022-12-18T11:14:22;2.30;99.90
7502;DHT22;3792;47.740;7.606;2022-12-18T11:16:51;2.80;99.90
7502;DHT22;3792;47.740;7.606;2022-12-18T11:19:29;2.50;99.90
7502;DHT22;3792;47.740;7.606;2022-12-18T11:21:57;2.40;99.90
7502;DHT22;3792;47.740;7.606;2022-12-18T11:24:28;2.10;99.90
7502;DHT22;3792;47.740;7.606;2022-12-18T11:26:57;1.80;99.90
7502;DHT22;3792;47.740;7.606;2022-12-18T11:29:31;1.80;99.90
7502;DHT22;3792;47.740;7.606;2022-12-18T11:32:34;1.80;99.90
7502;DHT22;3792;47.740;7.606;2022-12-18T11:35:10;1.30;99.90
7502;DHT22;3792;47.740;7.606;2022-12-18T11:37:40;1.40;99.90
7502;DHT22;3792;47.740;7.606;2022-12-18T11:40:14;1.70;99.90
7502;DHT22;3792;47.740;7.606;2022-12-18T11:42:48;1.80;99.90
7502;DHT22;3792;47.740;7.606;2022-12-18T11:45:29;1.80;99.90
7502;DHT22;3792;47.740;7.606;2022-12-18T11:48:01;1.40;99.90
7502;DHT22;3792;47.740;7.606;2022-12-18T11:50:33;1.40;99.90
7502;DHT22;3792;47.740;7.606;2022-12-18T11:53:10;1.20;99.90
7502;DHT22;3792;47.740;7.606;2022-12-18T11:55:44;1.10;99.90
7502;DHT22;3792;47.740;7.606;2022-12-18T11:58:24;1.00;99.90
7502;DHT22;3792;47.740;7.606;2022-12-18T12:01:02;0.60;99.90
7502;DHT22;3792;47.740;7.606;2022-12-18T12:03:51;0.50;99.90
7502;DHT22;3792;47.740;7.606;2022-12-18T12:06:24;0.30;99.90
7502;DHT22;3792;47.740;7.606;2022-12-18T12:09:04;0.20;99.90
7502;DHT22;3792;47.740;7.606;2022-12-18T12:11:41;-0.40;99.90
7502;DHT22;3792;47.740;7.606;2022-12-18T12:14:26;-0.30;99.90
7502;DHT22;3792;47.740;7.606;2022-12-18T12:16:59;-0.40;99.90
7502;DHT22;3792;47.740;7.606;2022-12-18T12:19:37;-0.30;99.90
7502;DHT22;3792;47.740;7.606;2022-12-18T12:22:10;0.00;99.90
7502;DHT22;3792;47.740;7.606;2022-12-18T12:24:52;-0.20;99.90
7502;DHT22;3792;47.740;7.606;2022-12-18T12:27:31;0.00;99.90
7502;DHT22;3792;47.740;7.606;2022-12-18T12:30:16;0.30;99.90
7502;DHT22;3792;47.740;7.606;2022-12-18T12:33:08;0.50;99.90
7502;DHT22;3792;47.740;7.606;2022-12-18T12:35:47;0.70;99.90
7502;DHT22;3792;47.740;7.606;2022-12-18T12:38:21;0.70;99.90
7502;DHT22;3792;47.740;7.606;2022-12-18T12:40:52;0.70;99.90
7502;DHT22;3792;47.740;7.606;2022-12-18T12:43:29;0.60;99.90
7502;DHT22;3792;47.740;7.606;2022-12-18T12:45:59;0.70;99.90
7502;DHT22;3792;47.740;7.606;2022-12-18T12:48:36;0.80;99.90
7502;DHT22;3792;47.740;7.606;2022-12-18T12:51:11;0.60;99.90
7502;DHT22;3792;47.740;7.606;2022-12-18T12:53:40;0.60;99.90
7502;DHT22;3792;47.740;7.606;2022-12-18T12:56:10;0.80;99.90
7502;DHT22;3792;47.740;7.606;2022-12-18T12:58:45;0.60;99.90
7502;DHT22;3792;47.740;7.606;2022-12-18T13:01:20;0.70;99.90
7502;DHT22;3792;47.740;7.606;2022-12-18T13:04:00;0.60;99.90
7502;DHT22;3792;47.740;7.606;2022-12-18T13:06:42;0.60;99.90
7502;DHT22;3792;47.740;7.606;2022-12-18T13:09:12;0.50;99.90
7502;DHT22;3792;47.740;7.606;2022-12-18T13:11:40;0.60;99.90
7502;DHT22;3792;47.740;7.606;2022-12-18T13:14:31;0.50;99.90
7502;DHT22;3792;47.740;7.606;2022-12-18T13:17:24;0.70;99.90
7502;DHT22;3792;47.740;7.606;2022-12-18T13:20:09;0.90;99.90
7502;DHT22;3792;47.740;7.606;2022-12-18T13:22:37;1.10;99.90
7502;DHT22;3792;47.740;7.606;2022-12-18T13:25:27;1.00;99.90
7502;DHT22;3792;47.740;7.606;2022-12-18T13:28:04;1.20;99.90
7502;DHT22;3792;47.740;7.606;2022-12-18T13:30:58;1.50;99.90
7502;DHT22;3792;47.740;7.606;2022-12-18T13:33:42;1.70;99.90
7502;DHT22;3792;47.740;7.606;2022-12-18T13:36:16;1.70;99.90
7502;DHT22;3792;47.740;7.606;2022-12-18T13:38:44;1.90;99.90
7502;DHT22;3792;47.740;7.606;2022-12-18T13:41:25;2.00;99.90
7502;DHT22;3792;47.740;7.606;2022-12-18T13:43:53;1.80;99.90
7502;DHT22;3792;47.740;7.606;2022-12-18T13:46:26;1.80;99.90
7502;DHT22;3792;47.740;7.606;2022-12-18T13:49:00;1.90;99.90
7502;DHT22;3792;47.740;7.606;2022-12-18T13:51:32;2.20;99.90
7502;DHT22;3792;47.740;7.606;2022-12-18T13:54:01;2.10;99.90
7502;DHT22;3792;47.740;7.606;2022-12-18T13:56:31;3.00;99.90
7502;DHT22;3792;47.740;7.606;2022-12-18T13:59:20;4.40;99.90
7502;DHT22;3792;47.740;7.606;2022-12-18T14:01:50;5.00;99.90
7502;DHT22;3792;47.740;7.606;2022-12-18T14:04:21;4.90;99.90
7502;DHT22;3792;47.740;7.606;2022-12-18T14:06:53;4.10;99.90
7502;DHT22;3792;47.740;7.606;2022-12-18T14:09:25;3.70;99.90
7502;DHT22;3792;47.740;7.606;2022-12-18T14:11:53;3.40;99.90
7502;DHT22;3792;47.740;7.606;2022-12-18T14:14:44;3.00;99.90
7502;DHT22;3792;47.740;7.606;2022-12-18T14:17:13;2.70;99.90
7502;DHT22;3792;47.740;7.606;2022-12-18T14:19:43;2.30;99.90
7502;DHT22;3792;47.740;7.606;2022-12-18T14:22:17;2.20;99.90
7502;DHT22;3792;47.740;7.606;2022-12-18T14:24:45;1.90;99.90
7502;DHT22;3792;47.740;7.606;2022-12-18T14:27:19;1.70;99.90
7502;DHT22;3792;47.740;7.606;2022-12-18T14:29:47;1.60;99.90
7502;DHT22;3792;47.740;7.606;2022-12-18T14:32:15;1.50;99.90
7502;DHT22;3792;47.740;7.606;2022-12-18T14:34:43;1.30;99.90
7502;DHT22;3792;47.740;7.606;2022-12-18T14:37:12;1.10;99.90
7502;DHT22;3792;47.740;7.606;2022-12-18T14:39:41;1.00;99.90
7502;DHT22;3792;47.740;7.606;2022-12-18T14:42:20;0.90;99.90
7502;DHT22;3792;47.740;7.606;2022-12-18T14:44:47;0.80;99.90
7502;DHT22;3792;47.740;7.606;2022-12-18T14:47:15;0.70;99.90
7502;DHT22;3792;47.740;7.606;2022-12-18T14:49:43;0.60;99.90
7502;DHT22;3792;47.740;7.606;2022-12-18T14:52:22;0.40;99.90
7502;DHT22;3792;47.740;7.606;2022-12-18T14:54:51;1.10;99.90
7502;DHT22;3792;47.740;7.606;2022-12-18T14:57:22;1.70;99.90
7502;DHT22;3792;47.740;7.606;2022-12-18T14:59:50;1.50;99.90
7502;DHT22;3792;47.740;7.606;2022-12-18T15:02:21;1.20;99.90
7502;DHT22;3792;47.740;7.606;2022-12-18T15:04:59;0.80;99.90
7502;DHT22;3792;47.740;7.606;2022-12-18T15:07:40;0.50;99.90
7502;DHT22;3792;47.740;7.606;2022-12-18T15:10:13;0.20;99.90
7502;DHT22;3792;47.740;7.606;2022-12-18T15:12:42;0.10;99.90
7502;DHT22;3792;47.740;7.606;2022-12-18T15:15:45;0.00;99.90
7502;DHT22;3792;47.740;7.606;2022-12-18T15:18:15;-0.10;99.90
7502;DHT22;3792;47.740;7.606;2022-12-18T15:20:44;-0.30;99.90
7502;DHT22;3792;47.740;7.606;2022-12-18T15:23:16;-0.30;99.90
7502;DHT22;3792;47.740;7.606;2022-12-18T15:25:47;-0.30;99.90
7502;DHT22;3792;47.740;7.606;2022-12-18T15:28:19;-0.40;99.90
7502;DHT22;3792;47.740;7.606;2022-12-18T15:30:59;-0.40;99.90
7502;DHT22;3792;47.740;7.606;2022-12-18T15:33:31;-0.40;99.90
7502;DHT22;3792;47.740;7.606;2022-12-18T15:36:01;-0.50;99.90
7502;DHT22;3792;47.740;7.606;2022-12-18T15:38:30;-0.60;99.90
7502;DHT22;3792;47.740;7.606;2022-12-18T15:41:00;-0.70;99.90
7502;DHT22;3792;47.740;7.606;2022-12-18T15:43:29;-0.80;99.90
7502;DHT22;3792;47.740;7.606;2022-12-18T15:46:06;-0.80;99.90
7502;DHT22;3792;47.740;7.606;2022-12-18T15:48:35;-1.00;99.90
7502;DHT22;3792;47.740;7.606;2022-12-18T15:51:08;-1.00;99.90
7502;DHT22;3792;47.740;7.606;2022-12-18T15:53:40;-1.00;99.90
7502;DHT22;3792;47.740;7.606;2022-12-18T15:56:10;-1.00;99.90
7502;DHT22;3792;47.740;7.606;2022-12-18T15:58:55;-1.10;99.90
7502;DHT22;3792;47.740;7.606;2022-12-18T16:01:23;-1.10;99.90
7502;DHT22;3792;47.740;7.606;2022-12-18T16:03:53;-1.10;99.90
7502;DHT22;3792;47.740;7.606;2022-12-18T16:06:21;-1.10;99.90
7502;DHT22;3792;47.740;7.606;2022-12-18T16:08:49;-1.20;99.90
7502;DHT22;3792;47.740;7.606;2022-12-18T16:11:21;-1.10;99.90
7502;DHT22;3792;47.740;7.606;2022-12-18T16:14:04;-1.10;99.90
7502;DHT22;3792;47.740;7.606;2022-12-18T16:16:32;-1.10;99.90
7502;DHT22;3792;47.740;7.606;2022-12-18T16:18:59;-1.00;99.90
7502;DHT22;3792;47.740;7.606;2022-12-18T16:21:26;-1.00;99.90
7502;DHT22;3792;47.740;7.606;2022-12-18T16:23:54;-1.00;99.90
7502;DHT22;3792;47.740;7.606;2022-12-18T16:26:22;-1.00;99.90
7502;DHT22;3792;47.740;7.606;2022-12-18T16:28:50;-1.00;99.90
7502;DHT22;3792;47.740;7.606;2022-12-18T16:31:18;-1.10;99.90